sensor_id;sensor_type;location;lat;lon;timestamp;pressure;altitude;pressure_sealevel;temperature;humidity
34177;BME280;20450;49.074;9.158;2022-08-19T00:02:03;99053.56;;;22.66;72.52
34177;BME280;20450;49.074;9.158;2022-08-19T00:04:33;99036.00;;;22.65;72.66
34177;BME280;20450;49.074;9.158;2022-08-19T00:07:02;99047.25;;;22.67;72.60
34177;BME280;20450;49.074;9.158;2022-08-19T00:09:30;99044.59;;;22.67;72.42
34177;BME280;20450;49.074;9.158;2022-08-19T00:11:59;99050.53;;;22.69;72.81
34177;BME280;20450;49.074;9.158;2022-08-19T00:14:27;99048.47;;;22.71;72.27
34177;BME280;20450;49.074;9.158;2022-08-19T00:16:55;99049.50;;;22.70;72.46
34177;BME280;20450;49.074;9.158;2022-08-19T00:19:22;99038.06;;;22.69;72.37
34177;BME280;20450;49.074;9.158;2022-08-19T00:21:50;99034.59;;;22.69;72.88
34177;BME280;20450;49.074;9.158;2022-08-19T00:24:17;99037.63;;;22.66;72.80
34177;BME280;20450;49.074;9.158;2022-08-19T00:26:45;99040.72;;;22.63;73.18
34177;BME280;20450;49.074;9.158;2022-08-19T00:29:15;99047.06;;;22.62;73.40
34177;BME280;20450;49.074;9.158;2022-08-19T00:31:45;99054.38;;;22.60;73.04
34177;BME280;20450;49.074;9.158;2022-08-19T00:34:13;99054.59;;;22.65;73.29
34177;BME280;20450;49.074;9.158;2022-08-19T00:36:41;99042.94;;;22.66;72.72
34177;BME280;20450;49.074;9.158;2022-08-19T00:39:09;99039.69;;;22.64;73.38
34177;BME280;20450;49.074;9.158;2022-08-19T00:41:37;99039.28;;;22.67;73.21
34177;BME280;20450;49.074;9.158;2022-08-19T00:44:07;99040.09;;;22.67;73.52
34177;BME280;20450;49.074;9.158;2022-08-19T00:46:42;99027.44;;;22.69;73.21
34177;BME280;20450;49.074;9.158;2022-08-19T00:49:29;99017.44;;;22.71;73.42
34177;BME280;20450;49.074;9.158;2022-08-19T00:52:15;99002.09;;;22.67;73.79
34177;BME280;20450;49.074;9.158;2022-08-19T00:54:47;99000.84;;;22.56;73.93
34177;BME280;20450;49.074;9.158;2022-08-19T00:57:24;98983.72;;;22.52;74.31
34177;BME280;20450;49.074;9.158;2022-08-19T00:59:56;98999.22;;;22.49;74.51
34177;BME280;20450;49.074;9.158;2022-08-19T01:02:32;99005.31;;;22.43;74.60
34177;BME280;20450;49.074;9.158;2022-08-19T01:05:00;99030.22;;;22.42;74.74
34177;BME280;20450;49.074;9.158;2022-08-19T01:07:29;99030.00;;;22.37;75.29
34177;BME280;20450;49.074;9.158;2022-08-19T01:10:05;99026.13;;;22.39;75.12
34177;BME280;20450;49.074;9.158;2022-08-19T01:12:34;99031.06;;;22.42;75.14
34177;BME280;20450;49.074;9.158;2022-08-19T01:15:02;99038.63;;;22.45;74.81
34177;BME280;20450;49.074;9.158;2022-08-19T01:17:29;99040.91;;;22.48;74.54
34177;BME280;20450;49.074;9.158;2022-08-19T01:19:58;99039.03;;;22.49;74.39
34177;BME280;20450;49.074;9.158;2022-08-19T01:22:29;99040.72;;;22.50;75.02
34177;BME280;20450;49.074;9.158;2022-08-19T01:25:01;99031.72;;;22.51;75.05
34177;BME280;20450;49.074;9.158;2022-08-19T01:27:43;99044.16;;;22.50;74.69
34177;BME280;20450;49.074;9.158;2022-08-19T01:30:17;99043.56;;;22.48;74.49
34177;BME280;20450;49.074;9.158;2022-08-19T01:32:48;99042.34;;;22.51;75.26
34177;BME280;20450;49.074;9.158;2022-08-19T01:35:15;99043.13;;;22.51;75.29
34177;BME280;20450;49.074;9.158;2022-08-19T01:37:47;99043.78;;;22.53;75.10
34177;BME280;20450;49.074;9.158;2022-08-19T01:40:18;99039.69;;;22.51;75.15
34177;BME280;20450;49.074;9.158;2022-08-19T01:42:47;99040.47;;;22.51;75.60
34177;BME280;20450;49.074;9.158;2022-08-19T01:45:14;99038.84;;;22.50;75.42
34177;BME280;20450;49.074;9.158;2022-08-19T01:47:41;99037.22;;;22.49;75.02
34177;BME280;20450;49.074;9.158;2022-08-19T01:50:18;99036.38;;;22.49;74.77
34177;BME280;20450;49.074;9.158;2022-08-19T01:52:49;99033.97;;;22.47;75.71
34177;BME280;20450;49.074;9.158;2022-08-19T01:55:33;99036.38;;;22.42;76.16
34177;BME280;20450;49.074;9.158;2022-08-19T01:58:08;99037.00;;;22.44;76.32
34177;BME280;20450;49.074;9.158;2022-08-19T02:00:39;99028.97;;;22.38;75.80
34177;BME280;20450;49.074;9.158;2022-08-19T02:03:07;99028.00;;;22.39;76.43
34177;BME280;20450;49.074;9.158;2022-08-19T02:05:34;99023.91;;;22.36;76.27
34177;BME280;20450;49.074;9.158;2022-08-19T02:08:03;99024.69;;;22.37;76.28
34177;BME280;20450;49.074;9.158;2022-08-19T02:10:30;99028.97;;;22.38;76.30
34177;BME280;20450;49.074;9.158;2022-08-19T02:12:57;99035.97;;;22.39;76.06
34177;BME280;20450;49.074;9.158;2022-08-19T02:15:25;99039.00;;;22.36;76.16
34177;BME280;20450;49.074;9.158;2022-08-19T02:17:52;99047.56;;;22.38;76.05
34177;BME280;20450;49.074;9.158;2022-08-19T02:20:19;99044.13;;;22.37;75.60
34177;BME280;20450;49.074;9.158;2022-08-19T02:22:46;99052.88;;;22.38;75.76
34177;BME280;20450;49.074;9.158;2022-08-19T02:25:14;99048.00;;;22.35;76.18
34177;BME280;20450;49.074;9.158;2022-08-19T02:27:42;99035.09;;;22.32;76.48
34177;BME280;20450;49.074;9.158;2022-08-19T02:30:13;99044.09;;;22.31;76.69
34177;BME280;20450;49.074;9.158;2022-08-19T02:32:43;99046.13;;;22.29;76.26
34177;BME280;20450;49.074;9.158;2022-08-19T02:35:11;99042.47;;;22.30;76.97
34177;BME280;20450;49.074;9.158;2022-08-19T02:37:39;99045.31;;;22.28;76.38
34177;BME280;20450;49.074;9.158;2022-08-19T02:40:07;99046.53;;;22.26;77.03
34177;BME280;20450;49.074;9.158;2022-08-19T02:42:39;99042.66;;;22.22;77.46
34177;BME280;20450;49.074;9.158;2022-08-19T02:45:07;99052.63;;;22.20;77.24
34177;BME280;20450;49.074;9.158;2022-08-19T02:47:34;99042.81;;;22.14;77.61
34177;BME280;20450;49.074;9.158;2022-08-19T02:50:02;99046.91;;;22.10;77.64
34177;BME280;20450;49.074;9.158;2022-08-19T02:52:31;99043.22;;;22.11;78.20
34177;BME280;20450;49.074;9.158;2022-08-19T02:54:59;99039.94;;;22.09;78.29
34177;BME280;20450;49.074;9.158;2022-08-19T02:57:27;99048.94;;;22.08;78.38
34177;BME280;20450;49.074;9.158;2022-08-19T02:59:55;99044.44;;;22.08;78.05
34177;BME280;20450;49.074;9.158;2022-08-19T03:02:22;99045.06;;;22.04;78.59
34177;BME280;20450;49.074;9.158;2022-08-19T03:04:49;99042.78;;;22.01;78.54
34177;BME280;20450;49.074;9.158;2022-08-19T03:07:17;99035.44;;;22.03;78.21
34177;BME280;20450;49.074;9.158;2022-08-19T03:09:44;99030.53;;;22.00;78.84
34177;BME280;20450;49.074;9.158;2022-08-19T03:12:11;99032.56;;;21.98;78.98
34177;BME280;20450;49.074;9.158;2022-08-19T03:14:38;99032.56;;;21.98;79.21
34177;BME280;20450;49.074;9.158;2022-08-19T03:17:07;99028.03;;;21.92;78.59
34177;BME280;20450;49.074;9.158;2022-08-19T03:19:34;99029.06;;;21.91;79.13
34177;BME280;20450;49.074;9.158;2022-08-19T03:22:01;99024.78;;;21.90;79.20
34177;BME280;20450;49.074;9.158;2022-08-19T03:24:28;99030.50;;;21.93;78.95
34177;BME280;20450;49.074;9.158;2022-08-19T03:26:55;99039.91;;;21.96;78.96
34177;BME280;20450;49.074;9.158;2022-08-19T03:29:23;99051.13;;;21.98;79.05
34177;BME280;20450;49.074;9.158;2022-08-19T03:31:57;99046.47;;;22.00;78.83
34177;BME280;20450;49.074;9.158;2022-08-19T03:34:29;99054.63;;;21.98;78.94
34177;BME280;20450;49.074;9.158;2022-08-19T03:37:03;99063.59;;;21.97;79.47
34177;BME280;20450;49.074;9.158;2022-08-19T03:39:32;99063.59;;;21.97;79.57
34177;BME280;20450;49.074;9.158;2022-08-19T03:41:59;99055.22;;;21.94;79.43
34177;BME280;20450;49.074;9.158;2022-08-19T03:44:46;99055.44;;;21.99;79.21
34177;BME280;20450;49.074;9.158;2022-08-19T03:47:13;99048.06;;;21.94;79.37
34177;BME280;20450;49.074;9.158;2022-08-19T03:49:41;99049.91;;;21.94;78.97
34177;BME280;20450;49.074;9.158;2022-08-19T03:52:08;99046.00;;;21.90;79.34
34177;BME280;20450;49.074;9.158;2022-08-19T03:54:36;99053.97;;;21.90;79.05
34177;BME280;20450;49.074;9.158;2022-08-19T03:57:03;99050.06;;;21.86;79.54
34177;BME280;20450;49.074;9.158;2022-08-19T03:59:32;99051.72;;;21.87;79.84
34177;BME280;20450;49.074;9.158;2022-08-19T04:02:03;99049.06;;;21.87;79.64
34177;BME280;20450;49.074;9.158;2022-08-19T04:04:34;99056.38;;;21.85;80.35
34177;BME280;20450;49.074;9.158;2022-08-19T04:07:03;99044.97;;;21.84;79.76
34177;BME280;20450;49.074;9.158;2022-08-19T04:09:30;99050.28;;;21.84;80.22
34177;BME280;20450;49.074;9.158;2022-08-19T04:11:57;99065.00;;;21.87;80.51
34177;BME280;20450;49.074;9.158;2022-08-19T04:14:27;99063.56;;;21.84;79.71
34177;BME280;20450;49.074;9.158;2022-08-19T04:16:56;99061.88;;;21.83;79.85
34177;BME280;20450;49.074;9.158;2022-08-19T04:19:23;99057.78;;;21.81;79.71
34177;BME280;20450;49.074;9.158;2022-08-19T04:21:52;99061.47;;;21.80;79.93
34177;BME280;20450;49.074;9.158;2022-08-19T04:24:22;99063.50;;;21.78;80.22
34177;BME280;20450;49.074;9.158;2022-08-19T04:26:50;99054.94;;;21.76;80.33
34177;BME280;20450;49.074;9.158;2022-08-19T04:29:20;99056.94;;;21.74;80.48
34177;BME280;20450;49.074;9.158;2022-08-19T04:31:49;99062.25;;;21.74;80.10
34177;BME280;20450;49.074;9.158;2022-08-19T04:34:19;99054.06;;;21.69;80.25
34177;BME280;20450;49.074;9.158;2022-08-19T04:36:51;99049.13;;;21.66;79.83
34177;BME280;20450;49.074;9.158;2022-08-19T04:39:28;99058.91;;;21.65;80.14
34177;BME280;20450;49.074;9.158;2022-08-19T04:41:56;99048.50;;;21.64;80.60
34177;BME280;20450;49.074;9.158;2022-08-19T04:44:24;99051.09;;;21.51;81.01
34177;BME280;20450;49.074;9.158;2022-08-19T04:46:51;99044.75;;;21.52;80.69
34177;BME280;20450;49.074;9.158;2022-08-19T04:49:20;99042.13;;;21.52;80.97
34177;BME280;20450;49.074;9.158;2022-08-19T04:51:50;99044.69;;;21.39;81.89
34177;BME280;20450;49.074;9.158;2022-08-19T04:54:18;99050.63;;;21.41;81.75
34177;BME280;20450;49.074;9.158;2022-08-19T04:57:07;99055.53;;;21.44;81.57
34177;BME280;20450;49.074;9.158;2022-08-19T04:59:35;99059.63;;;21.46;81.09
34177;BME280;20450;49.074;9.158;2022-08-19T05:02:03;99067.00;;;21.51;82.12
34177;BME280;20450;49.074;9.158;2022-08-19T05:04:31;99071.94;;;21.54;81.13
34177;BME280;20450;49.074;9.158;2022-08-19T05:06:59;99067.81;;;21.51;81.60
34177;BME280;20450;49.074;9.158;2022-08-19T05:09:27;99085.38;;;21.52;80.92
34177;BME280;20450;49.074;9.158;2022-08-19T05:12:16;99077.59;;;21.51;81.76
34177;BME280;20450;49.074;9.158;2022-08-19T05:14:44;99074.34;;;21.49;81.38
34177;BME280;20450;49.074;9.158;2022-08-19T05:17:11;99064.94;;;21.46;81.68
34177;BME280;20450;49.074;9.158;2022-08-19T05:19:54;99070.06;;;21.48;81.25
34177;BME280;20450;49.074;9.158;2022-08-19T05:22:21;99080.66;;;21.48;82.18
34177;BME280;20450;49.074;9.158;2022-08-19T05:24:48;99090.25;;;21.49;81.39
34177;BME280;20450;49.074;9.158;2022-08-19T05:27:36;99094.69;;;21.42;81.88
34177;BME280;20450;49.074;9.158;2022-08-19T05:30:04;99094.28;;;21.45;81.97
34177;BME280;20450;49.074;9.158;2022-08-19T05:32:32;99106.75;;;21.51;81.70
34177;BME280;20450;49.074;9.158;2022-08-19T05:34:59;99101.63;;;21.43;81.59
34177;BME280;20450;49.074;9.158;2022-08-19T05:37:26;99105.50;;;21.47;81.95
34177;BME280;20450;49.074;9.158;2022-08-19T05:39:53;99112.72;;;21.53;81.74
34177;BME280;20450;49.074;9.158;2022-08-19T05:42:22;99123.53;;;21.58;81.49
34177;BME280;20450;49.074;9.158;2022-08-19T05:44:51;99123.53;;;21.58;81.51
34177;BME280;20450;49.074;9.158;2022-08-19T05:47:18;99136.59;;;21.59;81.48
34177;BME280;20450;49.074;9.158;2022-08-19T05:49:46;99139.06;;;21.61;81.60
34177;BME280;20450;49.074;9.158;2022-08-19T05:52:15;99147.09;;;21.67;80.70
34177;BME280;20450;49.074;9.158;2022-08-19T05:54:45;99143.88;;;21.72;81.51
34177;BME280;20450;49.074;9.158;2022-08-19T05:57:17;99148.75;;;21.75;80.72
34177;BME280;20450;49.074;9.158;2022-08-19T05:59:45;99149.59;;;21.75;80.78
34177;BME280;20450;49.074;9.158;2022-08-19T06:02:14;99156.50;;;21.70;80.88
34177;BME280;20450;49.074;9.158;2022-08-19T06:04:45;99159.59;;;21.73;81.24
34177;BME280;20450;49.074;9.158;2022-08-19T06:07:12;99155.72;;;21.76;80.83
34177;BME280;20450;49.074;9.158;2022-08-19T06:09:40;99163.88;;;21.74;81.59
34177;BME280;20450;49.074;9.158;2022-08-19T06:12:24;99163.44;;;21.71;81.01
34177;BME280;20450;49.074;9.158;2022-08-19T06:14:51;99162.16;;;21.67;80.85
34177;BME280;20450;49.074;9.158;2022-08-19T06:17:29;99157.22;;;21.64;81.11
34177;BME280;20450;49.074;9.158;2022-08-19T06:19:57;99160.91;;;21.63;81.46
34177;BME280;20450;49.074;9.158;2022-08-19T06:22:26;99155.59;;;21.63;81.59
34177;BME280;20450;49.074;9.158;2022-08-19T06:24:53;99153.88;;;21.70;81.35
34177;BME280;20450;49.074;9.158;2022-08-19T06:27:21;99157.75;;;21.74;81.05
34177;BME280;20450;49.074;9.158;2022-08-19T06:29:49;99153.09;;;21.76;80.56
34177;BME280;20450;49.074;9.158;2022-08-19T06:32:17;99155.72;;;21.76;80.42
34177;BME280;20450;49.074;9.158;2022-08-19T06:34:46;99158.16;;;21.77;80.47
34177;BME280;20450;49.074;9.158;2022-08-19T06:37:14;99151.41;;;21.75;80.62
34177;BME280;20450;49.074;9.158;2022-08-19T06:39:43;99148.19;;;21.79;81.13
34177;BME280;20450;49.074;9.158;2022-08-19T06:42:11;99150.63;;;21.74;80.59
34177;BME280;20450;49.074;9.158;2022-08-19T06:44:41;99150.03;;;21.79;80.75
34177;BME280;20450;49.074;9.158;2022-08-19T06:47:17;99148.38;;;21.78;80.33
34177;BME280;20450;49.074;9.158;2022-08-19T06:49:56;99161.47;;;21.86;81.15
34177;BME280;20450;49.074;9.158;2022-08-19T06:52:29;99167.22;;;21.89;80.38
34177;BME280;20450;49.074;9.158;2022-08-19T06:55:00;99160.75;;;21.98;79.96
34177;BME280;20450;49.074;9.158;2022-08-19T06:57:32;99166.91;;;22.05;79.84
34177;BME280;20450;49.074;9.158;2022-08-19T07:00:00;99157.97;;;22.13;79.71
34177;BME280;20450;49.074;9.158;2022-08-19T07:02:27;99160.63;;;22.13;79.34
34177;BME280;20450;49.074;9.158;2022-08-19T07:04:56;99164.13;;;22.20;79.22
34177;BME280;20450;49.074;9.158;2022-08-19T07:07:23;99168.22;;;22.22;79.05
34177;BME280;20450;49.074;9.158;2022-08-19T07:09:51;99167.44;;;22.28;79.32
34177;BME280;20450;49.074;9.158;2022-08-19T07:12:28;99167.03;;;22.31;78.96
34177;BME280;20450;49.074;9.158;2022-08-19T07:14:57;99162.34;;;22.33;79.07
34177;BME280;20450;49.074;9.158;2022-08-19T07:17:25;99165.03;;;22.40;78.50
34177;BME280;20450;49.074;9.158;2022-08-19T07:19:53;99149.72;;;22.42;77.63
34177;BME280;20450;49.074;9.158;2022-08-19T07:22:22;99159.75;;;22.46;77.30
34177;BME280;20450;49.074;9.158;2022-08-19T07:24:50;99169.59;;;22.46;77.65
34177;BME280;20450;49.074;9.158;2022-08-19T07:27:18;99165.09;;;22.53;76.90
34177;BME280;20450;49.074;9.158;2022-08-19T07:29:52;99168.81;;;22.58;77.41
34177;BME280;20450;49.074;9.158;2022-08-19T07:32:23;99166.13;;;22.52;77.66
34177;BME280;20450;49.074;9.158;2022-08-19T07:34:51;99169.44;;;22.60;77.44
34177;BME280;20450;49.074;9.158;2022-08-19T07:37:17;99173.09;;;22.59;76.74
34177;BME280;20450;49.074;9.158;2022-08-19T07:39:46;99172.03;;;22.47;77.50
34177;BME280;20450;49.074;9.158;2022-08-19T07:42:13;99171.63;;;22.44;78.04
34177;BME280;20450;49.074;9.158;2022-08-19T07:44:40;99172.47;;;22.51;77.71
34177;BME280;20450;49.074;9.158;2022-08-19T07:47:17;99172.03;;;22.54;76.95
34177;BME280;20450;49.074;9.158;2022-08-19T07:50:07;99176.56;;;22.60;77.66
34177;BME280;20450;49.074;9.158;2022-08-19T07:52:37;99180.25;;;22.59;77.56
34177;BME280;20450;49.074;9.158;2022-08-19T07:55:08;99188.25;;;22.65;77.52
34177;BME280;20450;49.074;9.158;2022-08-19T07:57:57;99182.75;;;22.67;77.27
34177;BME280;20450;49.074;9.158;2022-08-19T08:00:24;99186.00;;;22.69;77.54
34177;BME280;20450;49.074;9.158;2022-08-19T08:02:52;99185.41;;;22.80;77.24
34177;BME280;20450;49.074;9.158;2022-08-19T08:05:21;99180.31;;;22.85;77.51
34177;BME280;20450;49.074;9.158;2022-08-19T08:07:48;99186.84;;;22.89;76.95
34177;BME280;20450;49.074;9.158;2022-08-19T08:10:17;99190.97;;;22.85;77.36
34177;BME280;20450;49.074;9.158;2022-08-19T08:12:47;99196.50;;;22.90;77.19
34177;BME280;20450;49.074;9.158;2022-08-19T08:15:35;99190.94;;;22.91;77.54
34177;BME280;20450;49.074;9.158;2022-08-19T08:18:08;99196.47;;;22.96;75.90
34177;BME280;20450;49.074;9.158;2022-08-19T08:20:35;99195.47;;;22.97;75.82
34177;BME280;20450;49.074;9.158;2022-08-19T08:23:02;99190.16;;;22.97;76.90
34177;BME280;20450;49.074;9.158;2022-08-19T08:25:30;99196.06;;;22.93;76.04
34177;BME280;20450;49.074;9.158;2022-08-19T08:28:01;99197.72;;;22.87;77.35
34177;BME280;20450;49.074;9.158;2022-08-19T08:30:30;99203.81;;;22.88;76.30
34177;BME280;20450;49.074;9.158;2022-08-19T08:32:58;99207.91;;;22.90;76.33
34177;BME280;20450;49.074;9.158;2022-08-19T08:35:25;99202.41;;;22.92;76.20
34177;BME280;20450;49.074;9.158;2022-08-19T08:37:54;99201.59;;;22.91;77.70
34177;BME280;20450;49.074;9.158;2022-08-19T08:40:28;99207.13;;;22.96;76.92
34177;BME280;20450;49.074;9.158;2022-08-19T08:43:04;99198.75;;;23.06;77.11
34177;BME280;20450;49.074;9.158;2022-08-19T08:45:43;99201.63;;;23.11;77.24
34177;BME280;20450;49.074;9.158;2022-08-19T08:48:24;99203.91;;;23.20;76.85
34177;BME280;20450;49.074;9.158;2022-08-19T08:51:03;99200.25;;;23.28;76.29
34177;BME280;20450;49.074;9.158;2022-08-19T08:53:35;99199.63;;;23.26;76.42
34177;BME280;20450;49.074;9.158;2022-08-19T08:56:11;99201.28;;;23.33;76.67
34177;BME280;20450;49.074;9.158;2022-08-19T08:58:51;99201.88;;;23.48;76.67
34177;BME280;20450;49.074;9.158;2022-08-19T09:01:23;99195.13;;;23.65;76.03
34177;BME280;20450;49.074;9.158;2022-08-19T09:03:56;99190.00;;;23.77;75.63
34177;BME280;20450;49.074;9.158;2022-08-19T09:06:34;99180.41;;;23.89;73.90
34177;BME280;20450;49.074;9.158;2022-08-19T09:09:14;99181.00;;;23.97;74.74
34177;BME280;20450;49.074;9.158;2022-08-19T09:11:56;99176.25;;;24.12;73.05
34177;BME280;20450;49.074;9.158;2022-08-19T09:14:38;99174.59;;;24.18;73.42
34177;BME280;20450;49.074;9.158;2022-08-19T09:17:18;99176.22;;;24.19;73.73
34177;BME280;20450;49.074;9.158;2022-08-19T09:19:54;99175.16;;;24.33;72.04
34177;BME280;20450;49.074;9.158;2022-08-19T09:22:23;99179.56;;;24.52;71.26
34177;BME280;20450;49.074;9.158;2022-08-19T09:24:54;99173.22;;;24.53;71.42
34177;BME280;20450;49.074;9.158;2022-08-19T09:27:22;99180.63;;;24.51;70.22
34177;BME280;20450;49.074;9.158;2022-08-19T09:30:16;99176.09;;;24.58;72.15
34177;BME280;20450;49.074;9.158;2022-08-19T09:32:44;99180.56;;;24.64;72.05
34177;BME280;20450;49.074;9.158;2022-08-19T09:35:12;99175.06;;;24.59;73.07
34177;BME280;20450;49.074;9.158;2022-08-19T09:37:41;99181.00;;;24.54;71.91
34177;BME280;20450;49.074;9.158;2022-08-19T09:40:10;99189.41;;;24.58;73.44
34177;BME280;20450;49.074;9.158;2022-08-19T09:42:38;99185.53;;;24.47;73.57
34177;BME280;20450;49.074;9.158;2022-08-19T09:45:19;99182.31;;;24.39;72.29
34177;BME280;20450;49.074;9.158;2022-08-19T09:47:48;99180.88;;;24.30;72.18
34177;BME280;20450;49.074;9.158;2022-08-19T09:50:16;99189.31;;;24.27;72.89
34177;BME280;20450;49.074;9.158;2022-08-19T09:52:43;99193.81;;;24.20;73.92
34177;BME280;20450;49.074;9.158;2022-08-19T09:55:24;99189.53;;;24.19;73.47
34177;BME280;20450;49.074;9.158;2022-08-19T09:57:59;99188.34;;;24.15;72.89
34177;BME280;20450;49.074;9.158;2022-08-19T10:00:29;99189.97;;;24.16;73.02
34177;BME280;20450;49.074;9.158;2022-08-19T10:02:56;99186.91;;;24.12;72.22
34177;BME280;20450;49.074;9.158;2022-08-19T10:05:23;99192.22;;;24.12;73.18
34177;BME280;20450;49.074;9.158;2022-08-19T10:07:52;99192.44;;;24.17;71.78
34177;BME280;20450;49.074;9.158;2022-08-19T10:10:26;99191.97;;;24.27;71.23
34177;BME280;20450;49.074;9.158;2022-08-19T10:12:53;99194.00;;;24.31;70.60
34177;BME280;20450;49.074;9.158;2022-08-19T10:15:20;99190.47;;;24.44;70.10
34177;BME280;20450;49.074;9.158;2022-08-19T10:17:56;99192.31;;;24.50;69.21
34177;BME280;20450;49.074;9.158;2022-08-19T10:20:24;99199.03;;;24.59;67.84
34177;BME280;20450;49.074;9.158;2022-08-19T10:22:51;99200.19;;;24.76;66.66
34177;BME280;20450;49.074;9.158;2022-08-19T10:25:19;99196.47;;;24.83;66.96
34177;BME280;20450;49.074;9.158;2022-08-19T10:27:46;99186.72;;;25.02;66.01
34177;BME280;20450;49.074;9.158;2022-08-19T10:30:17;99198.75;;;25.11;65.17
34177;BME280;20450;49.074;9.158;2022-08-19T10:32:46;99179.50;;;25.40;65.19
34177;BME280;20450;49.074;9.158;2022-08-19T10:35:14;99177.78;;;25.70;63.36
34177;BME280;20450;49.074;9.158;2022-08-19T10:37:48;99173.88;;;25.97;62.69
34177;BME280;20450;49.074;9.158;2022-08-19T10:40:22;99179.94;;;26.22;61.46
34177;BME280;20450;49.074;9.158;2022-08-19T10:42:49;99167.53;;;26.45;61.11
34177;BME280;20450;49.074;9.158;2022-08-19T10:45:16;99159.41;;;26.52;60.23
34177;BME280;20450;49.074;9.158;2022-08-19T10:47:44;99168.75;;;26.79;59.21
34177;BME280;20450;49.074;9.158;2022-08-19T10:50:10;99163.75;;;26.71;59.46
34177;BME280;20450;49.074;9.158;2022-08-19T10:52:40;99161.69;;;26.55;60.17
34177;BME280;20450;49.074;9.158;2022-08-19T10:55:18;99156.59;;;26.47;61.27
34177;BME280;20450;49.074;9.158;2022-08-19T10:57:47;99159.44;;;26.34;61.37
34177;BME280;20450;49.074;9.158;2022-08-19T11:00:30;99159.44;;;26.34;61.97
34177;BME280;20450;49.074;9.158;2022-08-19T11:02:57;99155.47;;;26.25;62.20
34177;BME280;20450;49.074;9.158;2022-08-19T11:05:24;99159.78;;;26.08;62.39
34177;BME280;20450;49.074;9.158;2022-08-19T11:07:52;99155.03;;;25.92;61.96
34177;BME280;20450;49.074;9.158;2022-08-19T11:10:19;99156.47;;;25.88;61.86
34177;BME280;20450;49.074;9.158;2022-08-19T11:12:48;99157.66;;;25.74;61.79
34177;BME280;20450;49.074;9.158;2022-08-19T11:15:16;99159.28;;;25.75;62.04
34177;BME280;20450;49.074;9.158;2022-08-19T11:17:43;99160.16;;;25.69;63.01
34177;BME280;20450;49.074;9.158;2022-08-19T11:20:11;99153.97;;;25.68;62.39
34177;BME280;20450;49.074;9.158;2022-08-19T11:22:40;99151.47;;;25.73;62.99
34177;BME280;20450;49.074;9.158;2022-08-19T11:25:10;99150.16;;;25.82;62.46
34177;BME280;20450;49.074;9.158;2022-08-19T11:27:39;99150.22;;;25.76;61.56
34177;BME280;20450;49.074;9.158;2022-08-19T11:30:08;99149.72;;;25.85;61.45
34177;BME280;20450;49.074;9.158;2022-08-19T11:32:39;99145.56;;;25.89;61.38
34177;BME280;20450;49.074;9.158;2022-08-19T11:35:13;99149.59;;;25.98;59.97
34177;BME280;20450;49.074;9.158;2022-08-19T11:37:40;99145.28;;;26.15;60.21
34177;BME280;20450;49.074;9.158;2022-08-19T11:40:09;99150.13;;;26.25;60.47
34177;BME280;20450;49.074;9.158;2022-08-19T11:42:37;99147.72;;;26.35;60.47
34177;BME280;20450;49.074;9.158;2022-08-19T11:45:05;99145.50;;;26.32;60.41
34177;BME280;20450;49.074;9.158;2022-08-19T11:47:32;99144.69;;;26.31;60.81
34177;BME280;20450;49.074;9.158;2022-08-19T11:49:59;99151.28;;;26.29;60.00
34177;BME280;20450;49.074;9.158;2022-08-19T11:52:26;99154.72;;;26.18;60.46
34177;BME280;20450;49.074;9.158;2022-08-19T11:54:53;99154.13;;;26.16;60.59
34177;BME280;20450;49.074;9.158;2022-08-19T11:57:21;99156.22;;;26.14;61.21
34177;BME280;20450;49.074;9.158;2022-08-19T11:59:49;99144.72;;;25.89;61.80
34177;BME280;20450;49.074;9.158;2022-08-19T12:02:16;99148.59;;;25.75;61.14
34177;BME280;20450;49.074;9.158;2022-08-19T12:04:44;99150.47;;;25.92;60.75
34177;BME280;20450;49.074;9.158;2022-08-19T12:07:11;99153.66;;;26.01;60.53
34177;BME280;20450;49.074;9.158;2022-08-19T12:09:37;99155.91;;;26.04;60.89
34177;BME280;20450;49.074;9.158;2022-08-19T12:12:08;99164.28;;;26.07;60.99
34177;BME280;20450;49.074;9.158;2022-08-19T12:14:37;99151.75;;;26.08;60.26
34177;BME280;20450;49.074;9.158;2022-08-19T12:17:04;99159.00;;;26.01;61.62
34177;BME280;20450;49.074;9.158;2022-08-19T12:19:31;99158.66;;;25.73;60.96
34177;BME280;20450;49.074;9.158;2022-08-19T12:21:59;99147.81;;;25.68;63.08
34177;BME280;20450;49.074;9.158;2022-08-19T12:28:12;99146.56;;;25.70;63.70
34177;BME280;20450;49.074;9.158;2022-08-19T12:30:40;99136.72;;;25.71;64.15
34177;BME280;20450;49.074;9.158;2022-08-19T12:33:07;99140.34;;;25.76;65.17
34177;BME280;20450;49.074;9.158;2022-08-19T12:35:35;99128.88;;;25.76;64.47
34177;BME280;20450;49.074;9.158;2022-08-19T12:38:11;99142.72;;;25.91;63.55
34177;BME280;20450;49.074;9.158;2022-08-19T12:40:38;99121.88;;;25.99;62.44
34177;BME280;20450;49.074;9.158;2022-08-19T12:43:06;99131.56;;;26.12;62.71
34177;BME280;20450;49.074;9.158;2022-08-19T12:45:33;99128.09;;;26.11;62.73
34177;BME280;20450;49.074;9.158;2022-08-19T12:48:04;99132.19;;;26.14;62.15
34177;BME280;20450;49.074;9.158;2022-08-19T12:50:51;99145.00;;;26.05;61.52
34177;BME280;20450;49.074;9.158;2022-08-19T12:53:18;99138.00;;;26.04;62.39
34177;BME280;20450;49.074;9.158;2022-08-19T12:55:45;99141.47;;;25.87;62.45
34177;BME280;20450;49.074;9.158;2022-08-19T12:58:12;99139.16;;;25.54;64.02
34177;BME280;20450;49.074;9.158;2022-08-19T13:00:39;99146.06;;;25.37;67.00
34177;BME280;20450;49.074;9.158;2022-08-19T13:03:08;99144.94;;;25.20;67.80
34177;BME280;20450;49.074;9.158;2022-08-19T13:05:35;99152.16;;;25.13;69.18
34177;BME280;20450;49.074;9.158;2022-08-19T13:08:02;99146.44;;;25.10;70.77
34177;BME280;20450;49.074;9.158;2022-08-19T13:10:32;99137.31;;;24.99;70.34
34177;BME280;20450;49.074;9.158;2022-08-19T13:13:02;99143.31;;;24.88;71.42
34177;BME280;20450;49.074;9.158;2022-08-19T13:15:33;99143.13;;;24.90;72.49
34177;BME280;20450;49.074;9.158;2022-08-19T13:18:03;99138.97;;;24.94;74.87
34177;BME280;20450;49.074;9.158;2022-08-19T13:20:32;99143.41;;;25.06;74.98